sensor_id;sensor_type;location;lat;lon;timestamp;temperature;humidity
52656;SHT85;35474;51.032;6.998;2022-09-09T00:00:35;17.24;82.55
52656;SHT85;35474;51.032;6.998;2022-09-09T00:05:55;17.27;82.21
52656;SHT85;35474;51.032;6.998;2022-09-09T00:11:47;17.57;79.22
52656;SHT85;35474;51.032;6.998;2022-09-09T00:14:20;17.61;79.04
52656;SHT85;35474;51.032;6.998;2022-09-09T00:17:12;17.67;79.54
52656;SHT85;35474;51.032;6.998;2022-09-09T00:19:48;17.50;80.63
52656;SHT85;35474;51.032;6.998;2022-09-09T00:22:27;17.26;81.64
52656;SHT85;35474;51.032;6.998;2022-09-09T00:25:02;17.19;82.18
52656;SHT85;35474;51.032;6.998;2022-09-09T00:27:39;17.34;82.09
52656;SHT85;35474;51.032;6.998;2022-09-09T00:30:20;17.58;81.33
52656;SHT85;35474;51.032;6.998;2022-09-09T00:32:50;17.67;80.97
52656;SHT85;35474;51.032;6.998;2022-09-09T00:35:27;17.50;81.20
52656;SHT85;35474;51.032;6.998;2022-09-09T00:37:58;17.37;81.52
52656;SHT85;35474;51.032;6.998;2022-09-09T00:40:31;17.30;81.97
52656;SHT85;35474;51.032;6.998;2022-09-09T00:43:05;17.24;82.15
52656;SHT85;35474;51.032;6.998;2022-09-09T00:46:08;17.14;82.70
52656;SHT85;35474;51.032;6.998;2022-09-09T00:51:41;17.19;82.94
52656;SHT85;35474;51.032;6.998;2022-09-09T00:56:59;17.16;83.10
52656;SHT85;35474;51.032;6.998;2022-09-09T00:59:55;17.16;82.89
52656;SHT85;35474;51.032;6.998;2022-09-09T01:02:46;17.14;82.94
52656;SHT85;35474;51.032;6.998;2022-09-09T01:07:58;17.14;82.83
52656;SHT85;35474;51.032;6.998;2022-09-09T01:13:24;17.10;82.70
52656;SHT85;35474;51.032;6.998;2022-09-09T01:16:03;17.09;82.78
52656;SHT85;35474;51.032;6.998;2022-09-09T01:18:43;17.09;82.78
52656;SHT85;35474;51.032;6.998;2022-09-09T01:26:45;16.98;81.50
52656;SHT85;35474;51.032;6.998;2022-09-09T01:29:14;17.04;79.98
52656;SHT85;35474;51.032;6.998;2022-09-09T01:31:52;17.02;79.89
52656;SHT85;35474;51.032;6.998;2022-09-09T01:34:22;17.07;78.90
52656;SHT85;35474;51.032;6.998;2022-09-09T01:39:24;17.21;77.15
52656;SHT85;35474;51.032;6.998;2022-09-09T01:41:52;17.17;77.22
52656;SHT85;35474;51.032;6.998;2022-09-09T01:44:19;17.24;76.80
52656;SHT85;35474;51.032;6.998;2022-09-09T01:46:46;17.23;76.87
52656;SHT85;35474;51.032;6.998;2022-09-09T01:49:13;17.11;77.27
52656;SHT85;35474;51.032;6.998;2022-09-09T01:51:39;17.06;77.93
52656;SHT85;35474;51.032;6.998;2022-09-09T01:54:09;17.09;77.79
52656;SHT85;35474;51.032;6.998;2022-09-09T02:02:01;17.11;77.86
52656;SHT85;35474;51.032;6.998;2022-09-09T02:05:04;17.11;78.19
52656;SHT85;35474;51.032;6.998;2022-09-09T02:07:48;17.13;78.71
52656;SHT85;35474;51.032;6.998;2022-09-09T02:10:28;17.09;79.37
52656;SHT85;35474;51.032;6.998;2022-09-09T02:13:04;17.07;80.05
52656;SHT85;35474;51.032;6.998;2022-09-09T02:18:25;17.14;80.40
52656;SHT85;35474;51.032;6.998;2022-09-09T02:20:59;17.02;80.93
52656;SHT85;35474;51.032;6.998;2022-09-09T02:23:25;17.04;80.99
52656;SHT85;35474;51.032;6.998;2022-09-09T02:25:54;16.99;81.11
52656;SHT85;35474;51.032;6.998;2022-09-09T02:28:24;16.99;80.98
52656;SHT85;35474;51.032;6.998;2022-09-09T02:30:54;17.00;81.00
52656;SHT85;35474;51.032;6.998;2022-09-09T02:33:26;16.99;80.55
52656;SHT85;35474;51.032;6.998;2022-09-09T02:35:56;17.06;80.85
52656;SHT85;35474;51.032;6.998;2022-09-09T02:38:29;17.13;80.91
52656;SHT85;35474;51.032;6.998;2022-09-09T02:41:01;17.00;81.22
52656;SHT85;35474;51.032;6.998;2022-09-09T02:43:32;16.86;81.71
52656;SHT85;35474;51.032;6.998;2022-09-09T02:49:01;16.86;82.04
52656;SHT85;35474;51.032;6.998;2022-09-09T02:51:32;16.80;82.27
52656;SHT85;35474;51.032;6.998;2022-09-09T02:56:45;16.80;82.19
52656;SHT85;35474;51.032;6.998;2022-09-09T02:59:16;16.76;82.26
52656;SHT85;35474;51.032;6.998;2022-09-09T03:01:43;16.76;82.23
52656;SHT85;35474;51.032;6.998;2022-09-09T03:04:10;16.73;82.25
52656;SHT85;35474;51.032;6.998;2022-09-09T03:06:36;16.78;81.91
52656;SHT85;35474;51.032;6.998;2022-09-09T03:09:02;16.89;81.00
52656;SHT85;35474;51.032;6.998;2022-09-09T03:11:29;16.96;80.37
52656;SHT85;35474;51.032;6.998;2022-09-09T03:13:56;17.02;79.93
52656;SHT85;35474;51.032;6.998;2022-09-09T03:16:23;17.06;79.95
52656;SHT85;35474;51.032;6.998;2022-09-09T03:18:49;17.02;80.31
52656;SHT85;35474;51.032;6.998;2022-09-09T03:21:16;17.07;80.36
52656;SHT85;35474;51.032;6.998;2022-09-09T03:23:42;17.02;81.02
52656;SHT85;35474;51.032;6.998;2022-09-09T03:26:10;17.06;81.28
52656;SHT85;35474;51.032;6.998;2022-09-09T03:28:37;16.98;81.36
52656;SHT85;35474;51.032;6.998;2022-09-09T03:31:04;16.99;81.37
52656;SHT85;35474;51.032;6.998;2022-09-09T03:33:31;16.90;81.72
52656;SHT85;35474;51.032;6.998;2022-09-09T03:35:58;16.89;81.70
52656;SHT85;35474;51.032;6.998;2022-09-09T03:38:24;16.90;81.63
52656;SHT85;35474;51.032;6.998;2022-09-09T03:40:52;17.04;81.52
52656;SHT85;35474;51.032;6.998;2022-09-09T03:43:23;16.98;81.46
52656;SHT85;35474;51.032;6.998;2022-09-09T03:45:51;16.92;81.77
52656;SHT85;35474;51.032;6.998;2022-09-09T03:48:18;16.98;81.46
52656;SHT85;35474;51.032;6.998;2022-09-09T03:50:48;16.90;81.92
52656;SHT85;35474;51.032;6.998;2022-09-09T03:53:17;16.80;82.31
52656;SHT85;35474;51.032;6.998;2022-09-09T03:55:46;16.83;82.22
52656;SHT85;35474;51.032;6.998;2022-09-09T03:58:13;16.85;82.07
52656;SHT85;35474;51.032;6.998;2022-09-09T04:00:41;16.86;82.03
52656;SHT85;35474;51.032;6.998;2022-09-09T04:03:11;16.82;82.28
52656;SHT85;35474;51.032;6.998;2022-09-09T04:05:41;16.82;81.96
52656;SHT85;35474;51.032;6.998;2022-09-09T04:08:08;16.85;82.20
52656;SHT85;35474;51.032;6.998;2022-09-09T04:10:35;16.86;82.22
52656;SHT85;35474;51.032;6.998;2022-09-09T04:13:04;16.79;82.35
52656;SHT85;35474;51.032;6.998;2022-09-09T04:15:31;16.86;82.10
52656;SHT85;35474;51.032;6.998;2022-09-09T04:17:58;16.75;82.29
52656;SHT85;35474;51.032;6.998;2022-09-09T04:20:24;16.89;81.98
52656;SHT85;35474;51.032;6.998;2022-09-09T04:22:51;16.89;81.94
52656;SHT85;35474;51.032;6.998;2022-09-09T04:25:17;16.90;81.82
52656;SHT85;35474;51.032;6.998;2022-09-09T04:27:44;16.83;82.15
52656;SHT85;35474;51.032;6.998;2022-09-09T04:30:11;16.92;81.81
52656;SHT85;35474;51.032;6.998;2022-09-09T04:32:38;16.88;81.92
52656;SHT85;35474;51.032;6.998;2022-09-09T04:35:05;16.95;81.69
52656;SHT85;35474;51.032;6.998;2022-09-09T04:37:31;16.89;81.80
52656;SHT85;35474;51.032;6.998;2022-09-09T04:39:57;16.96;81.64
52656;SHT85;35474;51.032;6.998;2022-09-09T04:42:28;16.93;81.80
52656;SHT85;35474;51.032;6.998;2022-09-09T04:44:55;16.88;81.86
52656;SHT85;35474;51.032;6.998;2022-09-09T04:47:21;16.90;81.76
52656;SHT85;35474;51.032;6.998;2022-09-09T04:49:48;16.89;81.60
52656;SHT85;35474;51.032;6.998;2022-09-09T04:52:15;16.86;81.92
52656;SHT85;35474;51.032;6.998;2022-09-09T04:54:43;16.85;81.91
52656;SHT85;35474;51.032;6.998;2022-09-09T04:57:10;16.85;81.87
52656;SHT85;35474;51.032;6.998;2022-09-09T04:59:43;16.92;81.63
52656;SHT85;35474;51.032;6.998;2022-09-09T05:02:11;16.92;81.39
52656;SHT85;35474;51.032;6.998;2022-09-09T05:04:38;16.98;81.41
52656;SHT85;35474;51.032;6.998;2022-09-09T05:07:04;16.92;81.29
52656;SHT85;35474;51.032;6.998;2022-09-09T05:09:31;16.95;81.15
52656;SHT85;35474;51.032;6.998;2022-09-09T05:11:57;16.92;81.33
52656;SHT85;35474;51.032;6.998;2022-09-09T05:14:24;17.04;80.91
52656;SHT85;35474;51.032;6.998;2022-09-09T05:16:51;17.04;81.00
52656;SHT85;35474;51.032;6.998;2022-09-09T05:19:17;17.02;81.04
52656;SHT85;35474;51.032;6.998;2022-09-09T05:21:45;16.96;81.18
52656;SHT85;35474;51.032;6.998;2022-09-09T05:24:12;16.47;84.11
52656;SHT85;35474;51.032;6.998;2022-09-09T05:26:38;16.30;85.08
52656;SHT85;35474;51.032;6.998;2022-09-09T05:29:05;16.24;85.74
52656;SHT85;35474;51.032;6.998;2022-09-09T05:31:32;16.21;85.74
52656;SHT85;35474;51.032;6.998;2022-09-09T05:34:00;16.20;85.89
52656;SHT85;35474;51.032;6.998;2022-09-09T05:36:26;16.25;85.77
52656;SHT85;35474;51.032;6.998;2022-09-09T05:38:53;16.28;85.76
52656;SHT85;35474;51.032;6.998;2022-09-09T05:41:22;16.42;85.11
52656;SHT85;35474;51.032;6.998;2022-09-09T05:43:49;16.49;85.10
52656;SHT85;35474;51.032;6.998;2022-09-09T05:46:16;16.55;84.75
52656;SHT85;35474;51.032;6.998;2022-09-09T05:48:48;16.51;84.57
52656;SHT85;35474;51.032;6.998;2022-09-09T05:51:19;16.57;84.68
52656;SHT85;35474;51.032;6.998;2022-09-09T05:53:50;16.57;84.96
52656;SHT85;35474;51.032;6.998;2022-09-09T05:56:22;16.64;84.65
52656;SHT85;35474;51.032;6.998;2022-09-09T05:58:51;16.65;84.62
52656;SHT85;35474;51.032;6.998;2022-09-09T06:03:48;16.69;84.95
52656;SHT85;35474;51.032;6.998;2022-09-09T06:06:17;16.64;84.95
52656;SHT85;35474;51.032;6.998;2022-09-09T06:08:50;16.61;85.25
52656;SHT85;35474;51.032;6.998;2022-09-09T06:11:22;16.67;85.09
52656;SHT85;35474;51.032;6.998;2022-09-09T06:13:50;16.71;85.07
52656;SHT85;35474;51.032;6.998;2022-09-09T06:16:21;16.67;84.84
52656;SHT85;35474;51.032;6.998;2022-09-09T06:18:53;16.71;84.73
52656;SHT85;35474;51.032;6.998;2022-09-09T06:21:22;16.72;84.75
52656;SHT85;35474;51.032;6.998;2022-09-09T06:23:53;16.76;84.30
52656;SHT85;35474;51.032;6.998;2022-09-09T06:28:56;16.85;84.11
52656;SHT85;35474;51.032;6.998;2022-09-09T06:32:34;16.79;83.95
52656;SHT85;35474;51.032;6.998;2022-09-09T06:35:01;16.85;83.33
52656;SHT85;35474;51.032;6.998;2022-09-09T06:37:27;16.89;82.97
52656;SHT85;35474;51.032;6.998;2022-09-09T06:39:53;16.99;81.87
52656;SHT85;35474;51.032;6.998;2022-09-09T06:42:21;17.10;81.64
52656;SHT85;35474;51.032;6.998;2022-09-09T06:44:47;17.23;81.21
52656;SHT85;35474;51.032;6.998;2022-09-09T06:47:14;17.27;80.88
52656;SHT85;35474;51.032;6.998;2022-09-09T06:49:40;17.31;80.52
52656;SHT85;35474;51.032;6.998;2022-09-09T06:52:13;17.40;80.31
52656;SHT85;35474;51.032;6.998;2022-09-09T06:54:40;17.38;79.86
52656;SHT85;35474;51.032;6.998;2022-09-09T06:57:06;17.51;79.25
52656;SHT85;35474;51.032;6.998;2022-09-09T06:59:53;17.58;78.85
52656;SHT85;35474;51.032;6.998;2022-09-09T07:02:19;17.74;78.34
52656;SHT85;35474;51.032;6.998;2022-09-09T07:04:47;17.91;78.07
52656;SHT85;35474;51.032;6.998;2022-09-09T07:07:17;18.22;76.97
52656;SHT85;35474;51.032;6.998;2022-09-09T07:09:43;18.30;76.41
52656;SHT85;35474;51.032;6.998;2022-09-09T07:12:11;18.17;74.95
52656;SHT85;35474;51.032;6.998;2022-09-09T07:14:38;18.47;74.36
52656;SHT85;35474;51.032;6.998;2022-09-09T07:17:05;18.57;73.92
52656;SHT85;35474;51.032;6.998;2022-09-09T07:19:31;18.75;73.28
52656;SHT85;35474;51.032;6.998;2022-09-09T07:21:58;18.89;73.09
52656;SHT85;35474;51.032;6.998;2022-09-09T07:24:24;18.70;72.52
52656;SHT85;35474;51.032;6.998;2022-09-09T07:26:51;18.64;72.16
52656;SHT85;35474;51.032;6.998;2022-09-09T07:29:18;18.57;72.03
52656;SHT85;35474;51.032;6.998;2022-09-09T07:31:46;18.47;72.55
52656;SHT85;35474;51.032;6.998;2022-09-09T07:34:13;18.46;72.83
52656;SHT85;35474;51.032;6.998;2022-09-09T07:36:39;18.41;72.71
52656;SHT85;35474;51.032;6.998;2022-09-09T07:39:10;18.83;70.55
52656;SHT85;35474;51.032;6.998;2022-09-09T07:41:40;19.16;70.78
52656;SHT85;35474;51.032;6.998;2022-09-09T07:44:12;19.62;68.63
52656;SHT85;35474;51.032;6.998;2022-09-09T07:46:41;19.19;68.20
52656;SHT85;35474;51.032;6.998;2022-09-09T07:49:08;18.92;68.51
52656;SHT85;35474;51.032;6.998;2022-09-09T07:51:37;19.29;68.28
52656;SHT85;35474;51.032;6.998;2022-09-09T07:54:06;19.53;66.08
52656;SHT85;35474;51.032;6.998;2022-09-09T07:56:35;19.14;66.88
52656;SHT85;35474;51.032;6.998;2022-09-09T07:59:03;19.11;66.68
52656;SHT85;35474;51.032;6.998;2022-09-09T08:04:06;19.11;66.68
52656;SHT85;35474;51.032;6.998;2022-09-09T08:06:35;19.02;66.70
52656;SHT85;35474;51.032;6.998;2022-09-09T08:09:06;18.91;66.71
52656;SHT85;35474;51.032;6.998;2022-09-09T08:11:34;19.06;66.79
52656;SHT85;35474;51.032;6.998;2022-09-09T08:14:04;19.04;66.73
52656;SHT85;35474;51.032;6.998;2022-09-09T08:16:34;19.11;66.64
52656;SHT85;35474;51.032;6.998;2022-09-09T08:19:03;19.22;65.66
52656;SHT85;35474;51.032;6.998;2022-09-09T08:21:31;19.22;64.58
52656;SHT85;35474;51.032;6.998;2022-09-09T08:23:59;19.23;63.72
52656;SHT85;35474;51.032;6.998;2022-09-09T08:26:29;19.19;63.16
52656;SHT85;35474;51.032;6.998;2022-09-09T08:28:58;19.25;63.16
52656;SHT85;35474;51.032;6.998;2022-09-09T08:31:33;19.18;63.16
52656;SHT85;35474;51.032;6.998;2022-09-09T08:34:01;19.34;62.80
52656;SHT85;35474;51.032;6.998;2022-09-09T08:36:32;19.28;63.05
52656;SHT85;35474;51.032;6.998;2022-09-09T08:39:01;19.39;63.27
52656;SHT85;35474;51.032;6.998;2022-09-09T08:44:13;19.46;62.72
52656;SHT85;35474;51.032;6.998;2022-09-09T08:46:58;19.55;62.76
52656;SHT85;35474;51.032;6.998;2022-09-09T08:52:14;19.56;61.87
52656;SHT85;35474;51.032;6.998;2022-09-09T08:54:45;19.63;61.43
52656;SHT85;35474;51.032;6.998;2022-09-09T08:57:25;19.63;61.63
52656;SHT85;35474;51.032;6.998;2022-09-09T08:59:54;19.59;59.15
52656;SHT85;35474;51.032;6.998;2022-09-09T09:02:46;19.64;58.48
52656;SHT85;35474;51.032;6.998;2022-09-09T09:05:19;19.57;58.05
52656;SHT85;35474;51.032;6.998;2022-09-09T09:08:12;19.70;58.09
52656;SHT85;35474;51.032;6.998;2022-09-09T09:10:53;19.62;57.55
52656;SHT85;35474;51.032;6.998;2022-09-09T09:16:16;20.08;57.15
52656;SHT85;35474;51.032;6.998;2022-09-09T09:18:48;20.36;56.59
52656;SHT85;35474;51.032;6.998;2022-09-09T09:21:29;19.97;56.82
52656;SHT85;35474;51.032;6.998;2022-09-09T09:23:59;20.00;56.86
52656;SHT85;35474;51.032;6.998;2022-09-09T09:26:30;19.85;57.03
52656;SHT85;35474;51.032;6.998;2022-09-09T09:28:58;19.80;57.45
52656;SHT85;35474;51.032;6.998;2022-09-09T09:31:27;19.70;57.74
52656;SHT85;35474;51.032;6.998;2022-09-09T09:33:54;19.88;57.87
52656;SHT85;35474;51.032;6.998;2022-09-09T09:36:24;19.78;58.31
52656;SHT85;35474;51.032;6.998;2022-09-09T09:39:03;19.62;58.45
52656;SHT85;35474;51.032;6.998;2022-09-09T09:41:51;19.59;59.15
52656;SHT85;35474;51.032;6.998;2022-09-09T09:46:52;19.70;59.19
52656;SHT85;35474;51.032;6.998;2022-09-09T09:49:19;19.78;59.37
52656;SHT85;35474;51.032;6.998;2022-09-09T09:51:46;19.69;59.10
52656;SHT85;35474;51.032;6.998;2022-09-09T09:56:39;19.62;59.60
52656;SHT85;35474;51.032;6.998;2022-09-09T09:59:19;19.66;59.62
52656;SHT85;35474;51.032;6.998;2022-09-09T10:04:39;20.07;58.91
52656;SHT85;35474;51.032;6.998;2022-09-09T10:07:21;20.35;58.37
52656;SHT85;35474;51.032;6.998;2022-09-09T10:09:53;20.36;58.62
52656;SHT85;35474;51.032;6.998;2022-09-09T10:12:35;20.29;58.43
52656;SHT85;35474;51.032;6.998;2022-09-09T10:15:17;20.42;58.74
52656;SHT85;35474;51.032;6.998;2022-09-09T10:32:15;20.45;58.35
52656;SHT85;35474;51.032;6.998;2022-09-09T10:35:19;20.56;57.30
52656;SHT85;35474;51.032;6.998;2022-09-09T10:51:23;20.08;58.59
52656;SHT85;35474;51.032;6.998;2022-09-09T10:54:09;20.07;58.20
52656;SHT85;35474;51.032;6.998;2022-09-09T10:56:50;20.41;57.62
52656;SHT85;35474;51.032;6.998;2022-09-09T10:59:27;20.34;57.19
52656;SHT85;35474;51.032;6.998;2022-09-09T11:04:44;20.71;55.87
52656;SHT85;35474;51.032;6.998;2022-09-09T11:07:58;21.03;55.55
52656;SHT85;35474;51.032;6.998;2022-09-09T11:10:44;20.62;56.12
52656;SHT85;35474;51.032;6.998;2022-09-09T11:13:26;20.92;55.60
52656;SHT85;35474;51.032;6.998;2022-09-09T11:16:16;21.72;53.80
52656;SHT85;35474;51.032;6.998;2022-09-09T11:18:49;21.51;54.77
52656;SHT85;35474;51.032;6.998;2022-09-09T11:21:18;21.65;54.64
52656;SHT85;35474;51.032;6.998;2022-09-09T11:23:54;21.20;55.79
52656;SHT85;35474;51.032;6.998;2022-09-09T11:26:31;21.00;56.03
52656;SHT85;35474;51.032;6.998;2022-09-09T11:29:08;20.80;56.25
52656;SHT85;35474;51.032;6.998;2022-09-09T11:34:56;20.56;55.99
52656;SHT85;35474;51.032;6.998;2022-09-09T11:38:09;20.56;56.34
52656;SHT85;35474;51.032;6.998;2022-09-09T11:40:53;20.52;55.92
52656;SHT85;35474;51.032;6.998;2022-09-09T11:43:23;20.63;54.99
52656;SHT85;35474;51.032;6.998;2022-09-09T11:45:57;20.31;54.83
52656;SHT85;35474;51.032;6.998;2022-09-09T11:51:12;20.41;54.92
52656;SHT85;35474;51.032;6.998;2022-09-09T11:59:01;20.68;55.10
52656;SHT85;35474;51.032;6.998;2022-09-09T12:04:01;20.63;55.25
52656;SHT85;35474;51.032;6.998;2022-09-09T12:06:32;20.66;55.28
52656;SHT85;35474;51.032;6.998;2022-09-09T12:09:18;20.73;55.02
52656;SHT85;35474;51.032;6.998;2022-09-09T12:11:45;20.75;54.76
52656;SHT85;35474;51.032;6.998;2022-09-09T12:14:22;20.71;54.74
52656;SHT85;35474;51.032;6.998;2022-09-09T12:20:01;20.65;54.66
52656;SHT85;35474;51.032;6.998;2022-09-09T12:22:38;20.68;54.84
52656;SHT85;35474;51.032;6.998;2022-09-09T12:30:35;20.71;54.72
52656;SHT85;35474;51.032;6.998;2022-09-09T12:33:16;20.77;54.63
52656;SHT85;35474;51.032;6.998;2022-09-09T12:35:47;20.97;54.28
52656;SHT85;35474;51.032;6.998;2022-09-09T12:38:41;20.83;54.22
52656;SHT85;35474;51.032;6.998;2022-09-09T12:44:04;20.73;54.64
52656;SHT85;35474;51.032;6.998;2022-09-09T12:49:03;20.83;54.82
52656;SHT85;35474;51.032;6.998;2022-09-09T12:51:30;20.55;54.67
52656;SHT85;35474;51.032;6.998;2022-09-09T12:53:59;20.56;55.28
52656;SHT85;35474;51.032;6.998;2022-09-09T12:56:27;20.59;55.33
52656;SHT85;35474;51.032;6.998;2022-09-09T12:58:58;20.35;56.79
52656;SHT85;35474;51.032;6.998;2022-09-09T13:01:27;20.20;58.86
52656;SHT85;35474;51.032;6.998;2022-09-09T13:03:58;19.02;67.06
52656;SHT85;35474;51.032;6.998;2022-09-09T13:06:26;19.43;65.58
52656;SHT85;35474;51.032;6.998;2022-09-09T13:08:58;20.39;64.38
52656;SHT85;35474;51.032;6.998;2022-09-09T13:11:30;20.51;63.51
52656;SHT85;35474;51.032;6.998;2022-09-09T13:14:04;20.63;62.30
52656;SHT85;35474;51.032;6.998;2022-09-09T13:16:33;20.52;62.41
52656;SHT85;35474;51.032;6.998;2022-09-09T13:19:08;20.66;62.18
52656;SHT85;35474;51.032;6.998;2022-09-09T13:21:40;20.41;63.00
52656;SHT85;35474;51.032;6.998;2022-09-09T13:24:21;20.52;63.06
52656;SHT85;35474;51.032;6.998;2022-09-09T13:26:59;19.94;65.24
52656;SHT85;35474;51.032;6.998;2022-09-09T13:29:31;20.07;65.25
52656;SHT85;35474;51.032;6.998;2022-09-09T13:32:05;19.85;66.05
52656;SHT85;35474;51.032;6.998;2022-09-09T13:34:34;20.04;66.11
52656;SHT85;35474;51.032;6.998;2022-09-09T13:37:02;20.01;66.73
52656;SHT85;35474;51.032;6.998;2022-09-09T13:39:50;20.05;66.87
52656;SHT85;35474;51.032;6.998;2022-09-09T13:42:24;19.83;68.43
52656;SHT85;35474;51.032;6.998;2022-09-09T13:44:54;19.34;71.36
52656;SHT85;35474;51.032;6.998;2022-09-09T13:47:26;18.67;80.62
52656;SHT85;35474;51.032;6.998;2022-09-09T13:49:57;18.37;81.06
52656;SHT85;35474;51.032;6.998;2022-09-09T13:52:24;18.53;83.87
52656;SHT85;35474;51.032;6.998;2022-09-09T13:54:53;18.63;83.54
52656;SHT85;35474;51.032;6.998;2022-09-09T13:57:21;19.11;81.18
52656;SHT85;35474;51.032;6.998;2022-09-09T13:59:51;19.77;78.56
52656;SHT85;35474;51.032;6.998;2022-09-09T14:02:30;21.68;70.22
52656;SHT85;35474;51.032;6.998;2022-09-09T14:04:57;21.62;67.69
52656;SHT85;35474;51.032;6.998;2022-09-09T14:07:23;21.69;69.20
52656;SHT85;35474;51.032;6.998;2022-09-09T14:09:51;21.55;69.29
52656;SHT85;35474;51.032;6.998;2022-09-09T14:12:18;20.66;62.61
52656;SHT85;35474;51.032;6.998;2022-09-09T14:14:45;20.59;65.15
52656;SHT85;35474;51.032;6.998;2022-09-09T14:17:11;20.55;63.64
52656;SHT85;35474;51.032;6.998;2022-09-09T14:19:38;20.52;68.47
52656;SHT85;35474;51.032;6.998;2022-09-09T14:22:04;19.80;68.61
52656;SHT85;35474;51.032;6.998;2022-09-09T14:24:31;18.54;72.84
52656;SHT85;35474;51.032;6.998;2022-09-09T14:26:57;18.58;73.94
52656;SHT85;35474;51.032;6.998;2022-09-09T14:29:24;16.83;86.55
52656;SHT85;35474;51.032;6.998;2022-09-09T14:31:52;16.24;91.64
52656;SHT85;35474;51.032;6.998;2022-09-09T14:34:19;16.04;92.49
52656;SHT85;35474;51.032;6.998;2022-09-09T14:36:45;16.17;91.60
52656;SHT85;35474;51.032;6.998;2022-09-09T14:39:12;16.17;91.29
52656;SHT85;35474;51.032;6.998;2022-09-09T14:41:39;16.14;92.01
52656;SHT85;35474;51.032;6.998;2022-09-09T14:44:05;16.04;91.02
52656;SHT85;35474;51.032;6.998;2022-09-09T14:46:32;16.18;91.81
52656;SHT85;35474;51.032;6.998;2022-09-09T14:48:59;16.32;90.21
52656;SHT85;35474;51.032;6.998;2022-09-09T14:51:26;16.42;89.44
52656;SHT85;35474;51.032;6.998;2022-09-09T14:53:56;16.38;88.27
52656;SHT85;35474;51.032;6.998;2022-09-09T14:56:25;16.32;87.28
52656;SHT85;35474;51.032;6.998;2022-09-09T14:58:54;16.38;86.93
52656;SHT85;35474;51.032;6.998;2022-09-09T15:01:21;16.48;88.13
52656;SHT85;35474;51.032;6.998;2022-09-09T15:03:51;16.44;88.01
52656;SHT85;35474;51.032;6.998;2022-09-09T15:06:20;16.58;86.97
52656;SHT85;35474;51.032;6.998;2022-09-09T15:08:47;16.78;87.16
52656;SHT85;35474;51.032;6.998;2022-09-09T15:11:17;16.98;87.29
52656;SHT85;35474;51.032;6.998;2022-09-09T15:13:45;17.16;85.35
52656;SHT85;35474;51.032;6.998;2022-09-09T15:16:13;17.23;85.19
52656;SHT85;35474;51.032;6.998;2022-09-09T15:18:44;17.31;84.49
52656;SHT85;35474;51.032;6.998;2022-09-09T15:21:15;17.48;83.20
52656;SHT85;35474;51.032;6.998;2022-09-09T15:23:45;17.62;83.31
52656;SHT85;35474;51.032;6.998;2022-09-09T15:26:13;17.68;83.47
52656;SHT85;35474;51.032;6.998;2022-09-09T15:28:41;17.89;83.04
52656;SHT85;35474;51.032;6.998;2022-09-09T15:31:16;17.96;83.61
52656;SHT85;35474;51.032;6.998;2022-09-09T15:33:51;18.15;82.78
52656;SHT85;35474;51.032;6.998;2022-09-09T15:36:23;18.02;81.09
52656;SHT85;35474;51.032;6.998;2022-09-09T15:38:51;18.19;82.26
52656;SHT85;35474;51.032;6.998;2022-09-09T15:41:19;18.04;81.55
52656;SHT85;35474;51.032;6.998;2022-09-09T15:43:48;18.17;80.86
52656;SHT85;35474;51.032;6.998;2022-09-09T15:46:21;18.43;78.45
52656;SHT85;35474;51.032;6.998;2022-09-09T15:48:54;18.36;78.36
52656;SHT85;35474;51.032;6.998;2022-09-09T15:51:23;18.36;80.03
52656;SHT85;35474;51.032;6.998;2022-09-09T15:54:10;18.50;79.27
52656;SHT85;35474;51.032;6.998;2022-09-09T15:56:42;18.50;78.76
52656;SHT85;35474;51.032;6.998;2022-09-09T15:59:09;18.64;78.89
52656;SHT85;35474;51.032;6.998;2022-09-09T16:01:35;18.64;78.61
52656;SHT85;35474;51.032;6.998;2022-09-09T16:04:02;18.67;77.71
52656;SHT85;35474;51.032;6.998;2022-09-09T16:06:30;19.18;76.35
52656;SHT85;35474;51.032;6.998;2022-09-09T16:08:57;19.06;75.13
52656;SHT85;35474;51.032;6.998;2022-09-09T16:11:28;18.98;75.69
52656;SHT85;35474;51.032;6.998;2022-09-09T16:13:59;18.95;77.05
52656;SHT85;35474;51.032;6.998;2022-09-09T16:16:27;18.88;77.53
52656;SHT85;35474;51.032;6.998;2022-09-09T16:18:59;18.83;78.33
52656;SHT85;35474;51.032;6.998;2022-09-09T16:21:32;18.66;77.04
52656;SHT85;35474;51.032;6.998;2022-09-09T16:24:01;18.57;74.60
52656;SHT85;35474;51.032;6.998;2022-09-09T16:26:30;18.37;74.64
52656;SHT85;35474;51.032;6.998;2022-09-09T16:28:58;18.33;75.39
52656;SHT85;35474;51.032;6.998;2022-09-09T16:31:26;18.25;75.32
52656;SHT85;35474;51.032;6.998;2022-09-09T16:33:54;18.30;75.66
52656;SHT85;35474;51.032;6.998;2022-09-09T16:36:21;18.30;76.05
52656;SHT85;35474;51.032;6.998;2022-09-09T16:38:53;18.29;76.35
52656;SHT85;35474;51.032;6.998;2022-09-09T16:41:24;18.26;75.81
52656;SHT85;35474;51.032;6.998;2022-09-09T16:43:55;18.29;76.51
52656;SHT85;35474;51.032;6.998;2022-09-09T16:46:27;18.22;77.03
52656;SHT85;35474;51.032;6.998;2022-09-09T16:48:55;18.16;76.42
52656;SHT85;35474;51.032;6.998;2022-09-09T16:51:25;18.20;76.51
52656;SHT85;35474;51.032;6.998;2022-09-09T16:54:00;18.32;76.43
52656;SHT85;35474;51.032;6.998;2022-09-09T16:56:29;18.23;76.79
52656;SHT85;35474;51.032;6.998;2022-09-09T16:59:03;18.19;76.25
52656;SHT85;35474;51.032;6.998;2022-09-09T17:01:33;18.19;76.51
52656;SHT85;35474;51.032;6.998;2022-09-09T17:04:05;18.17;77.08
52656;SHT85;35474;51.032;6.998;2022-09-09T17:06:46;18.26;77.42
52656;SHT85;35474;51.032;6.998;2022-09-09T17:09:15;18.33;77.47
52656;SHT85;35474;51.032;6.998;2022-09-09T17:11:42;18.32;77.51
52656;SHT85;35474;51.032;6.998;2022-09-09T17:14:10;18.44;78.01
52656;SHT85;35474;51.032;6.998;2022-09-09T17:16:39;18.44;78.23
52656;SHT85;35474;51.032;6.998;2022-09-09T17:19:06;18.13;79.01
52656;SHT85;35474;51.032;6.998;2022-09-09T17:21:34;17.96;79.98
52656;SHT85;35474;51.032;6.998;2022-09-09T17:24:15;17.77;80.46
52656;SHT85;35474;51.032;6.998;2022-09-09T17:26:41;17.53;81.18
52656;SHT85;35474;51.032;6.998;2022-09-09T17:29:08;17.53;81.47
52656;SHT85;35474;51.032;6.998;2022-09-09T17:31:34;17.51;81.78
52656;SHT85;35474;51.032;6.998;2022-09-09T17:34:01;17.43;82.08
52656;SHT85;35474;51.032;6.998;2022-09-09T17:36:32;17.55;81.92
52656;SHT85;35474;51.032;6.998;2022-09-09T17:39:00;17.59;81.59
52656;SHT85;35474;51.032;6.998;2022-09-09T17:41:28;17.51;81.83
52656;SHT85;35474;51.032;6.998;2022-09-09T17:43:57;17.50;82.04
52656;SHT85;35474;51.032;6.998;2022-09-09T17:46:27;17.54;82.22
52656;SHT85;35474;51.032;6.998;2022-09-09T17:48:56;17.50;82.23
52656;SHT85;35474;51.032;6.998;2022-09-09T17:51:26;17.48;82.46
52656;SHT85;35474;51.032;6.998;2022-09-09T17:53:56;17.47;82.72
52656;SHT85;35474;51.032;6.998;2022-09-09T17:57:34;17.53;82.36